Time;durP1;ratioP1;P1;durP2;ratioP2;P2;SDS_P1;SDS_P2;PMS_P1;PMS_P2;Temp;Humidity;BMP_temperature;BMP_pressure;BME280_temperature;BME280_humidity;BME280_pressure;Samples;Min_cycle;Max_cycle;Signal;HPM_P1;HPM_P2
2021/12/19 00:00:51;;;;;;;79.88;47.08;;;19.10;89.20;;;;;;4184482;28;20044;-67
2021/12/19 00:03:19;;;;;;;72.28;45.38;;;19.10;89.00;;;;;;4187076;28;20045;-67
2021/12/19 00:09:53;;;;;;;64.05;42.25;;;18.60;90.60;;;;;;4173081;28;20052;-67
2021/12/19 00:11:58;;;;;;;62.55;40.53;;;18.50;90.50;;;;;;4177600;28;20421;-66
2021/12/19 00:14:03;;;;;;;145.25;45.88;;;18.70;90.50;;;;;;4179134;28;20053;-67
2021/12/19 00:16:08;;;;;;;65.72;42.53;;;18.90;90.20;;;;;;4178845;28;20053;-63
2021/12/19 00:18:12;;;;;;;63.50;39.95;;;18.80;90.50;;;;;;4177677;28;20072;-68
2021/12/19 00:20:17;;;;;;;64.72;41.35;;;18.80;90.40;;;;;;4185215;28;20063;-68
2021/12/19 00:22:41;;;;;;;63.67;41.00;;;19.10;90.10;;;;;;4194949;28;20055;-68
2021/12/19 00:24:46;;;;;;;61.75;38.92;;;18.90;90.30;;;;;;4188963;28;20044;-68
2021/12/19 00:26:51;;;;;;;64.20;40.00;;;18.90;90.30;;;;;;4161136;28;20041;-67
2021/12/19 00:28:55;;;;;;;62.15;39.60;;;19.00;90.10;;;;;;4179355;28;20048;-67
2021/12/19 00:31:00;;;;;;;66.43;40.15;;;18.80;90.40;;;;;;4180685;28;20734;-67
2021/12/19 00:33:04;;;;;;;58.80;40.22;;;18.70;90.60;;;;;;4175942;28;20435;-68
2021/12/19 00:35:09;;;;;;;64.10;40.42;;;19.00;90.30;;;;;;4181549;28;20049;-68
2021/12/19 00:37:13;;;;;;;62.80;39.88;;;19.10;90.20;;;;;;4181705;28;20072;-68
2021/12/19 00:39:20;;;;;;;65.15;39.30;;;18.90;90.20;;;;;;4180819;28;20097;-68
2021/12/19 00:41:25;;;;;;;67.63;41.60;;;19.10;90.10;;;;;;4205835;28;20048;-68
2021/12/19 00:43:43;;;;;;;66.20;40.40;;;19.20;89.80;;;;;;4178266;28;20045;-68
2021/12/19 00:45:49;;;;;;;64.72;38.03;;;19.20;89.90;;;;;;4179557;28;20045;-68
2021/12/19 00:47:54;;;;;;;57.70;37.88;;;19.10;90.00;;;;;;4182323;28;20048;-67
2021/12/19 00:49:58;;;;;;;54.70;36.65;;;19.30;89.80;;;;;;4184310;28;20139;-68
2021/12/19 00:52:18;;;;;;;55.72;35.92;;;19.30;89.50;;;;;;4185380;28;20048;-69
2021/12/19 00:54:22;;;;;;;52.30;35.38;;;19.20;90.00;;;;;;4186295;28;20032;-68
2021/12/19 00:56:27;;;;;;;58.25;34.20;;;19.30;89.30;;;;;;4186582;28;20049;-67
2021/12/19 00:58:31;;;;;;;48.30;33.53;;;19.40;89.40;;;;;;4184045;28;20047;-68
2021/12/19 01:00:37;;;;;;;50.08;33.85;;;19.40;89.60;;;;;;4185637;28;20128;-69
2021/12/19 01:02:41;;;;;;;49.38;34.08;;;19.30;89.30;;;;;;4182347;28;20136;-67
2021/12/19 01:04:48;;;;;;;56.53;34.67;;;19.50;88.90;;;;;;4175911;28;20136;-67
2021/12/19 01:06:53;;;;;;;51.97;34.17;;;19.70;87.60;;;;;;4188742;28;20048;-68
2021/12/19 01:08:57;;;;;;;53.60;33.53;;;19.70;87.90;;;;;;4194774;28;20044;-67
2021/12/19 01:11:02;;;;;;;49.30;33.33;;;19.80;87.70;;;;;;4194958;28;20472;-66
2021/12/19 01:13:07;;;;;;;47.22;31.90;;;19.60;87.80;;;;;;4194597;28;20540;-68
2021/12/19 01:15:13;;;;;;;51.90;32.53;;;19.70;87.40;;;;;;4194548;28;20064;-68
2021/12/19 01:17:17;;;;;;;49.25;32.45;;;19.70;87.30;;;;;;4178018;28;20140;-67
2021/12/19 01:19:23;;;;;;;46.75;34.65;;;19.70;88.10;;;;;;4178399;28;20064;-67
2021/12/19 01:21:28;;;;;;;51.03;32.20;;;19.80;87.30;;;;;;4179329;28;20052;-67
2021/12/19 01:23:32;;;;;;;47.53;32.45;;;19.80;87.20;;;;;;4186494;28;20052;-68
2021/12/19 01:25:36;;;;;;;51.38;33.60;;;19.80;86.50;;;;;;4187090;28;20407;-67
2021/12/19 01:27:41;;;;;;;49.55;33.03;;;19.90;86.70;;;;;;4192309;28;20157;-67
2021/12/19 01:29:45;;;;;;;49.10;32.90;;;20.10;86.30;;;;;;4191185;28;20056;-66
2021/12/19 01:31:50;;;;;;;50.30;32.97;;;20.20;86.20;;;;;;4189456;28;20519;-67
2021/12/19 01:33:54;;;;;;;51.10;33.05;;;20.10;85.40;;;;;;4185536;28;20049;-67
2021/12/19 01:35:59;;;;;;;50.92;33.20;;;20.10;86.30;;;;;;4180233;28;20538;-67
2021/12/19 01:38:03;;;;;;;44.88;32.53;;;20.20;86.20;;;;;;4189152;28;20088;-68
2021/12/19 01:40:09;;;;;;;45.78;32.97;;;20.40;85.00;;;;;;4184142;28;20388;-66
2021/12/19 01:42:13;;;;;;;45.08;31.48;;;20.30;85.90;;;;;;4180173;28;20052;-67
2021/12/19 01:44:17;;;;;;;48.13;32.35;;;20.40;85.30;;;;;;4180172;28;20052;-66
2021/12/19 01:46:21;;;;;;;47.83;32.35;;;20.30;85.40;;;;;;4180741;28;20033;-67
2021/12/19 01:48:27;;;;;;;44.83;32.13;;;20.30;85.40;;;;;;4195907;28;20045;-67
2021/12/19 01:50:33;;;;;;;52.63;32.65;;;20.40;85.90;;;;;;4177802;28;20037;-67
2021/12/19 01:52:37;;;;;;;49.25;33.60;;;20.50;84.80;;;;;;4177320;28;20087;-67
2021/12/19 01:54:41;;;;;;;51.20;33.42;;;20.50;84.90;;;;;;4186408;28;20335;-66
2021/12/19 01:56:46;;;;;;;48.95;32.42;;;20.60;85.20;;;;;;4180843;28;20094;-66
2021/12/19 01:58:50;;;;;;;46.42;32.17;;;20.60;84.60;;;;;;4176528;28;20053;-67
2021/12/19 02:00:55;;;;;;;51.08;31.90;;;20.70;84.40;;;;;;4187453;28;20136;-67
2021/12/19 02:03:00;;;;;;;47.53;32.22;;;20.70;84.90;;;;;;4189085;28;20415;-67
2021/12/19 02:05:07;;;;;;;49.35;31.50;;;20.80;84.20;;;;;;4186380;28;20037;-68
2021/12/19 02:07:12;;;;;;;46.75;31.60;;;20.90;84.10;;;;;;4180837;28;20483;-68
2021/12/19 02:09:18;;;;;;;46.20;32.83;;;20.90;83.80;;;;;;4180319;28;20493;-68
2021/12/19 02:11:23;;;;;;;46.15;32.35;;;20.80;83.30;;;;;;4219040;28;20088;-68
2021/12/19 02:13:27;;;;;;;47.25;30.85;;;20.80;83.80;;;;;;4186871;28;20452;-68
2021/12/19 02:15:32;;;;;;;47.90;31.48;;;21.00;83.50;;;;;;4199639;28;20542;-67
2021/12/19 02:17:36;;;;;;;45.78;30.50;;;21.10;83.00;;;;;;4201576;28;20044;-67
2021/12/19 02:19:44;;;;;;;44.95;29.45;;;21.00;82.80;;;;;;4202164;28;20036;-68
2021/12/19 02:21:49;;;;;;;41.15;30.58;;;21.10;82.30;;;;;;4184961;28;20084;-68
2021/12/19 02:23:57;;;;;;;42.00;29.75;;;21.10;82.20;;;;;;4203428;28;20126;-68
2021/12/19 02:26:02;;;;;;;39.83;28.38;;;21.10;82.40;;;;;;4202419;28;20051;-68
2021/12/19 02:28:07;;;;;;;42.53;29.95;;;21.20;82.70;;;;;;4200009;28;20052;-68
2021/12/19 02:30:12;;;;;;;48.40;30.52;;;21.30;82.30;;;;;;4201392;28;20586;-68
2021/12/19 02:32:16;;;;;;;41.47;29.63;;;21.30;82.00;;;;;;4187964;28;20079;-68
2021/12/19 02:34:25;;;;;;;44.97;29.80;;;21.20;81.50;;;;;;4178235;28;20140;-67
2021/12/19 02:49:50;;;;;;;40.83;27.65;;;21.70;80.70;;;;;;4202662;28;20082;-67
2021/12/19 02:51:55;;;;;;;30.10;22.40;;;21.80;80.70;;;;;;4198329;28;20044;-68
2021/12/19 02:54:00;;;;;;;29.80;21.88;;;21.80;77.90;;;;;;4181768;28;20053;-68
2021/12/19 02:56:07;;;;;;;28.40;21.33;;;21.90;78.60;;;;;;4187654;28;20048;-67
2021/12/19 02:58:11;;;;;;;28.98;21.05;;;22.00;77.70;;;;;;4183716;28;20049;-68
2021/12/19 03:00:22;;;;;;;30.42;21.27;;;22.10;77.60;;;;;;4183107;28;20041;-68
2021/12/19 03:02:26;;;;;;;25.48;20.20;;;22.10;77.30;;;;;;4188345;28;20056;-68
2021/12/19 03:04:31;;;;;;;30.13;19.45;;;22.10;76.70;;;;;;4180408;28;20457;-68
2021/12/19 03:06:44;;;;;;;29.60;20.88;;;22.10;76.60;;;;;;4186056;28;20037;-68
2021/12/19 03:08:51;;;;;;;32.17;20.25;;;22.30;77.50;;;;;;4176967;28;20065;-69
2021/12/19 03:19:55;;;;;;;26.58;19.55;;;22.60;76.30;;;;;;4179455;28;20068;-68
2021/12/19 03:21:59;;;;;;;27.60;19.83;;;22.60;76.10;;;;;;4179860;28;20449;-65
2021/12/19 03:24:04;;;;;;;25.35;18.95;;;22.60;75.80;;;;;;4179539;28;20098;-68
2021/12/19 03:26:09;;;;;;;32.70;19.38;;;22.60;75.80;;;;;;4176625;28;20053;-68
2021/12/19 03:28:13;;;;;;;27.45;20.13;;;22.60;75.10;;;;;;4195835;28;20090;-68
2021/12/19 03:30:18;;;;;;;31.23;20.58;;;22.60;75.80;;;;;;4180767;28;20044;-67
2021/12/19 03:32:25;;;;;;;26.08;20.02;;;22.60;75.80;;;;;;4179660;28;20049;-67
2021/12/19 03:34:32;;;;;;;32.20;19.63;;;22.80;75.60;;;;;;4179660;28;20133;-67
2021/12/19 03:36:36;;;;;;;24.85;17.77;;;22.90;74.70;;;;;;4179808;28;20087;-67
2021/12/19 03:38:43;;;;;;;25.13;19.27;;;23.00;74.00;;;;;;4196248;28;20526;-67
2021/12/19 03:43:14;;;;;;;25.55;16.77;;;23.10;74.80;;;;;;4174831;28;20106;-67
2021/12/19 03:45:20;;;;;;;25.95;18.73;;;23.20;73.80;;;;;;4178709;28;20390;-67
2021/12/19 03:47:25;;;;;;;28.15;18.95;;;23.30;73.60;;;;;;4183424;28;20491;-66
2021/12/19 03:49:30;;;;;;;26.88;19.67;;;23.30;73.40;;;;;;4180706;28;20084;-67
2021/12/19 03:51:34;;;;;;;25.52;19.35;;;23.30;73.80;;;;;;4179426;28;20041;-67
2021/12/19 03:53:39;;;;;;;24.30;18.45;;;23.30;73.30;;;;;;4187187;28;20072;-66
2021/12/19 03:55:44;;;;;;;26.42;18.20;;;23.30;73.80;;;;;;4194679;28;20041;-68
2021/12/19 03:57:50;;;;;;;26.52;19.00;;;23.20;73.30;;;;;;4191160;28;20124;-68
2021/12/19 03:59:55;;;;;;;30.40;18.33;;;23.30;72.70;;;;;;4179380;28;20068;-67
2021/12/19 04:02:00;;;;;;;26.17;18.77;;;23.40;73.50;;;;;;4180590;28;20048;-66
2021/12/19 04:04:05;;;;;;;25.33;20.10;;;23.50;73.80;;;;;;4186662;28;20156;-67
2021/12/19 04:06:10;;;;;;;25.60;19.38;;;23.50;73.00;;;;;;4181046;28;20048;-68
2021/12/19 04:08:15;;;;;;;27.50;18.60;;;23.60;73.10;;;;;;4184589;28;20574;-68
2021/12/19 04:10:21;;;;;;;25.27;17.45;;;23.70;72.70;;;;;;4185187;28;20056;-68
2021/12/19 04:12:28;;;;;;;24.95;18.20;;;23.70;72.50;;;;;;4175759;28;20039;-68
2021/12/19 04:14:32;;;;;;;22.20;17.80;;;23.70;72.80;;;;;;4176737;28;20526;-68
2021/12/19 04:16:42;;;;;;;23.75;17.83;;;23.80;72.10;;;;;;4180400;28;20103;-67
2021/12/19 04:18:46;;;;;;;23.58;18.15;;;24.00;72.90;;;;;;4176427;28;20088;-68
2021/12/19 04:20:51;;;;;;;26.60;18.08;;;24.00;72.10;;;;;;4181851;28;20049;-68
2021/12/19 04:22:55;;;;;;;26.88;18.50;;;24.00;72.00;;;;;;4192679;28;20055;-69
2021/12/19 04:25:00;;;;;;;24.35;17.77;;;23.90;71.70;;;;;;4191730;28;20097;-67
2021/12/19 04:27:05;;;;;;;28.33;17.95;;;24.00;71.80;;;;;;4188556;28;20111;-67
2021/12/19 04:29:12;;;;;;;25.98;18.23;;;23.90;71.90;;;;;;4184905;28;20044;-68
2021/12/19 04:31:19;;;;;;;26.90;18.00;;;24.00;71.40;;;;;;4178936;28;20091;-68
2021/12/19 04:33:25;;;;;;;25.55;17.88;;;24.10;71.60;;;;;;4184371;28;20131;-67
2021/12/19 04:35:33;;;;;;;28.55;17.85;;;24.10;71.40;;;;;;4183867;28;20044;-67
2021/12/19 04:39:59;;;;;;;23.42;16.83;;;24.20;70.90;;;;;;4183950;28;20041;-67
2021/12/19 04:53:36;;;;;;;22.08;16.52;;;24.50;69.40;;;;;;4183950;28;20055;-67
2021/12/19 05:00:29;;;;;;;30.20;18.25;;;24.30;70.70;;;;;;4182618;28;20041;-67
2021/12/19 05:15:52;;;;;;;26.95;19.33;;;24.50;70.20;;;;;;4180413;28;20553;-68
2021/12/19 05:18:04;;;;;;;28.60;18.80;;;24.50;69.80;;;;;;4184444;28;20097;-68
2021/12/19 05:20:16;;;;;;;31.70;18.75;;;24.50;69.90;;;;;;4181683;28;20084;-68
2021/12/19 05:22:23;;;;;;;29.42;19.42;;;24.60;70.00;;;;;;4182202;28;20075;-68
2021/12/19 05:26:44;;;;;;;27.13;20.58;;;24.60;69.90;;;;;;4185634;28;20079;-65
2021/12/19 05:28:52;;;;;;;29.13;21.38;;;24.70;70.00;;;;;;4181474;28;20541;-64
2021/12/19 05:30:56;;;;;;;27.33;20.02;;;24.70;69.70;;;;;;4179187;28;20143;-66
2021/12/19 05:33:02;;;;;;;29.27;20.02;;;24.70;68.50;;;;;;4191107;28;20474;-64
2021/12/19 05:35:09;;;;;;;31.55;20.13;;;24.80;69.00;;;;;;4179496;28;20041;-64
2021/12/19 05:46:26;;;;;;;31.50;20.52;;;25.00;68.30;;;;;;4177744;28;20055;-67
2021/12/19 05:48:30;;;;;;;27.10;20.42;;;25.10;68.10;;;;;;4177593;28;20049;-67
2021/12/19 05:50:37;;;;;;;31.65;20.85;;;25.00;68.10;;;;;;4181468;28;20101;-67
2021/12/19 05:52:41;;;;;;;29.63;20.20;;;25.10;68.70;;;;;;4167679;28;20033;-67
2021/12/19 05:54:46;;;;;;;27.13;19.80;;;25.10;68.70;;;;;;4178202;28;20310;-66
2021/12/19 05:56:51;;;;;;;24.95;18.92;;;25.20;67.90;;;;;;4176506;28;20072;-66
2021/12/19 05:58:55;;;;;;;31.15;19.80;;;25.20;68.10;;;;;;4181911;28;20087;-66
2021/12/19 06:01:00;;;;;;;32.75;19.70;;;25.30;67.90;;;;;;4176831;28;20141;-67
2021/12/19 06:03:04;;;;;;;28.98;19.95;;;25.30;68.20;;;;;;4178436;28;20060;-68
2021/12/19 06:05:10;;;;;;;28.83;18.88;;;25.30;68.70;;;;;;4182967;28;20048;-67
2021/12/19 06:07:14;;;;;;;29.50;17.52;;;25.30;67.60;;;;;;4177318;28;20053;-67
2021/12/19 06:09:19;;;;;;;39.83;19.23;;;25.30;68.10;;;;;;4181158;28;20131;-67
2021/12/19 06:11:23;;;;;;;24.55;17.25;;;25.40;67.70;;;;;;4183524;28;20430;-68
2021/12/19 06:13:28;;;;;;;26.23;17.55;;;25.50;67.50;;;;;;4181102;28;20298;-68
2021/12/19 06:15:32;;;;;;;32.45;21.42;;;25.30;66.90;;;;;;4180989;28;20055;-67
2021/12/19 06:17:41;;;;;;;29.33;21.75;;;25.40;67.40;;;;;;4196711;28;20051;-67
2021/12/19 06:19:46;;;;;;;32.50;22.50;;;25.50;66.80;;;;;;4197603;28;20395;-67
2021/12/19 06:21:50;;;;;;;35.33;24.20;;;25.50;65.80;;;;;;4192516;28;20095;-67
2021/12/19 06:23:55;;;;;;;24.08;17.05;;;25.60;67.00;;;;;;4197629;28;20106;-67
2021/12/19 06:26:00;;;;;;;25.23;16.25;;;25.50;66.30;;;;;;4195283;28;20056;-67
2021/12/19 06:28:04;;;;;;;24.67;16.50;;;25.30;65.70;;;;;;4190292;28;20515;-67
2021/12/19 06:30:09;;;;;;;24.90;17.17;;;25.30;66.10;;;;;;4180773;28;20047;-67
2021/12/19 06:32:13;;;;;;;23.92;16.33;;;25.50;66.80;;;;;;4179542;28;20040;-68
2021/12/19 06:34:18;;;;;;;23.83;15.65;;;25.40;66.10;;;;;;4178406;28;20053;-68
2021/12/19 07:05:05;;;;;;;18.25;15.57;;;25.50;64.70;;;;;;4185470;28;20456;-72
2021/12/19 07:07:30;;;;;;;23.40;15.68;;;25.80;65.60;;;;;;4186292;28;20566;-72
2021/12/19 07:09:55;;;;;;;20.70;14.10;;;25.90;65.50;;;;;;4184333;28;20060;-72
2021/12/19 07:12:20;;;;;;;23.30;15.20;;;25.90;65.00;;;;;;4184852;28;20080;-71
2021/12/19 07:14:45;;;;;;;18.95;14.48;;;25.90;64.60;;;;;;4185243;28;20608;-71
2021/12/19 07:17:09;;;;;;;20.52;14.85;;;25.90;64.90;;;;;;4188781;28;20044;-71
2021/12/19 07:19:35;;;;;;;22.10;15.57;;;26.00;65.00;;;;;;4186412;28;20235;-72
2021/12/19 07:21:59;;;;;;;19.92;14.55;;;26.00;64.20;;;;;;4186563;28;20098;-72
2021/12/19 07:24:24;;;;;;;21.20;15.30;;;25.90;64.70;;;;;;4185035;28;20441;-72
2021/12/19 07:26:48;;;;;;;21.02;15.32;;;26.00;64.80;;;;;;4185257;28;20036;-71
2021/12/19 07:29:13;;;;;;;30.05;20.10;;;26.00;65.10;;;;;;4185817;28;20053;-71
2021/12/19 07:31:38;;;;;;;21.23;15.15;;;26.00;64.60;;;;;;4185427;28;20503;-72
2021/12/19 07:34:05;;;;;;;23.55;16.30;;;25.90;64.70;;;;;;4184907;28;20053;-72
2021/12/19 07:36:37;;;;;;;27.73;17.90;;;25.90;64.70;;;;;;4186741;28;20052;-71
2021/12/19 07:39:07;;;;;;;36.53;20.08;;;25.90;65.20;;;;;;4185868;28;20052;-71
2021/12/19 07:41:32;;;;;;;26.60;19.25;;;26.00;65.00;;;;;;4182916;28;20049;-71
2021/12/19 07:43:57;;;;;;;21.70;16.80;;;26.00;64.50;;;;;;4187496;28;20045;-72
2021/12/19 07:46:22;;;;;;;26.45;16.48;;;26.10;64.80;;;;;;4184095;28;20055;-72
2021/12/19 07:48:33;;;;;;;26.73;14.95;;;26.10;64.40;;;;;;4179341;28;20106;-71
2021/12/19 07:50:55;;;;;;;20.77;14.20;;;26.00;64.00;;;;;;4184988;28;20133;-71
2021/12/19 07:53:01;;;;;;;22.60;15.00;;;26.00;64.20;;;;;;4174450;28;20107;-70
2021/12/19 07:55:06;;;;;;;22.10;15.52;;;26.00;63.80;;;;;;4169075;28;20049;-71
2021/12/19 07:57:12;;;;;;;26.33;15.25;;;26.00;63.90;;;;;;4188614;28;20056;-71
2021/12/19 07:59:17;;;;;;;23.15;16.10;;;26.00;64.10;;;;;;4187868;28;20055;-71
2021/12/19 08:01:21;;;;;;;21.20;15.75;;;26.00;64.60;;;;;;4189453;28;20051;-71
2021/12/19 08:03:27;;;;;;;20.30;15.63;;;26.00;64.40;;;;;;4188826;28;20049;-71
2021/12/19 08:05:32;;;;;;;19.63;15.82;;;26.10;64.50;;;;;;4148527;28;20088;-71
2021/12/19 08:07:39;;;;;;;24.48;15.95;;;26.10;64.10;;;;;;4163699;28;20056;-70
2021/12/19 08:12:00;;;;;;;23.17;15.45;;;26.20;63.90;;;;;;4180495;28;20045;-71
2021/12/19 08:14:06;;;;;;;25.63;14.75;;;26.10;64.40;;;;;;4164094;28;20106;-69
2021/12/19 08:16:10;;;;;;;24.98;15.23;;;26.10;64.00;;;;;;4164459;28;20468;-70
2021/12/19 08:18:14;;;;;;;20.10;15.93;;;26.00;64.50;;;;;;4163587;28;20069;-70
2021/12/19 08:20:19;;;;;;;26.25;15.73;;;26.00;64.40;;;;;;4164354;28;20049;-71
2021/12/19 08:22:23;;;;;;;21.02;15.13;;;25.90;64.40;;;;;;4164480;28;20068;-70
2021/12/19 08:24:28;;;;;;;22.25;15.63;;;25.90;64.20;;;;;;4169519;28;20080;-69
2021/12/19 08:26:33;;;;;;;21.63;14.30;;;25.90;64.80;;;;;;4187112;28;20458;-70
2021/12/19 08:28:41;;;;;;;18.83;14.55;;;26.00;64.70;;;;;;4179377;28;20037;-70
2021/12/19 08:30:45;;;;;;;19.70;14.27;;;26.00;64.60;;;;;;4178742;28;20041;-70
2021/12/19 08:32:52;;;;;;;22.92;14.60;;;26.10;64.10;;;;;;4187477;28;20127;-70
2021/12/19 08:34:56;;;;;;;19.10;14.38;;;26.00;63.90;;;;;;4197094;28;20048;-71
2021/12/19 08:37:02;;;;;;;25.00;16.13;;;26.00;63.70;;;;;;4176922;28;20414;-70
2021/12/19 08:39:10;;;;;;;23.13;14.63;;;26.00;64.30;;;;;;4178845;28;20071;-70
2021/12/19 08:41:15;;;;;;;19.33;15.02;;;26.00;64.80;;;;;;4163480;28;20069;-71
2021/12/19 08:43:19;;;;;;;24.00;15.68;;;26.00;64.80;;;;;;4171621;28;20049;-70
2021/12/19 08:45:24;;;;;;;24.17;15.98;;;26.00;65.10;;;;;;4178881;28;20052;-71
2021/12/19 08:47:31;;;;;;;27.17;16.33;;;26.00;64.70;;;;;;4181049;28;20068;-71
2021/12/19 08:49:36;;;;;;;22.20;15.23;;;25.90;65.10;;;;;;4194544;28;20044;-72
2021/12/19 08:51:40;;;;;;;21.13;15.20;;;26.00;65.10;;;;;;4195761;28;20044;-71
2021/12/19 08:53:45;;;;;;;24.17;14.75;;;26.00;64.40;;;;;;4186231;28;20095;-71
2021/12/19 08:55:49;;;;;;;21.40;15.25;;;25.90;64.30;;;;;;4177960;28;20115;-72
2021/12/19 08:57:54;;;;;;;21.52;15.55;;;25.80;64.60;;;;;;4176446;28;20060;-70
2021/12/19 08:59:58;;;;;;;23.15;14.68;;;25.80;65.10;;;;;;4179209;28;20041;-72
2021/12/19 09:02:03;;;;;;;30.02;16.50;;;25.80;64.50;;;;;;4179373;28;20059;-71
2021/12/19 09:04:07;;;;;;;29.33;16.05;;;25.70;65.00;;;;;;4178815;28;20455;-71
2021/12/19 09:06:12;;;;;;;24.63;14.95;;;25.80;64.70;;;;;;4181530;28;20037;-71
2021/12/19 09:08:16;;;;;;;22.58;15.38;;;25.80;64.30;;;;;;4179788;28;20079;-71
2021/12/19 09:10:21;;;;;;;21.55;15.52;;;25.80;65.10;;;;;;4179652;28;20044;-71
2021/12/19 09:12:27;;;;;;;20.63;16.15;;;25.90;64.90;;;;;;4181257;28;20045;-71
2021/12/19 09:14:31;;;;;;;24.63;17.58;;;25.80;64.20;;;;;;4181496;28;20445;-71
2021/12/19 09:16:36;;;;;;;26.38;17.67;;;25.70;64.30;;;;;;4177820;28;20041;-71
2021/12/19 09:18:48;;;;;;;24.00;17.50;;;25.60;65.00;;;;;;4180443;28;20049;-71
2021/12/19 09:20:52;;;;;;;24.38;16.58;;;25.60;64.90;;;;;;4180988;28;20570;-73
2021/12/19 09:22:57;;;;;;;21.45;15.85;;;25.60;65.20;;;;;;4177369;28;20045;-70
2021/12/19 09:25:01;;;;;;;27.73;16.48;;;25.60;65.00;;;;;;4178826;28;20049;-71
2021/12/19 09:27:07;;;;;;;23.35;16.38;;;25.60;65.60;;;;;;4178388;28;20063;-71
2021/12/19 09:29:12;;;;;;;22.45;15.73;;;25.60;65.50;;;;;;4178940;28;20559;-70
2021/12/19 09:31:16;;;;;;;25.63;17.00;;;25.60;65.20;;;;;;4177487;28;20045;-70
2021/12/19 09:33:20;;;;;;;25.77;17.33;;;25.50;65.10;;;;;;4177030;28;20384;-70
2021/12/19 09:35:25;;;;;;;24.42;15.35;;;25.50;65.40;;;;;;4177261;28;20096;-70
2021/12/19 09:37:30;;;;;;;22.05;15.43;;;25.50;65.40;;;;;;4178443;28;20052;-70
2021/12/19 09:39:34;;;;;;;21.98;16.27;;;25.50;65.30;;;;;;4178141;28;20137;-70
2021/12/19 09:41:43;;;;;;;24.13;16.17;;;25.40;65.10;;;;;;4178521;28;20052;-69
2021/12/19 09:43:48;;;;;;;24.98;17.15;;;25.40;65.50;;;;;;4176397;28;20128;-70
2021/12/19 09:45:55;;;;;;;22.75;17.48;;;25.40;65.70;;;;;;4141059;28;20057;-69
2021/12/19 09:48:00;;;;;;;27.40;15.70;;;25.40;65.70;;;;;;4151054;28;20042;-69
2021/12/19 09:50:07;;;;;;;25.80;16.55;;;25.40;65.70;;;;;;4165474;28;20530;-69
2021/12/19 09:52:12;;;;;;;25.90;16.38;;;25.40;65.70;;;;;;4159556;28;20049;-69
2021/12/19 09:54:16;;;;;;;26.45;18.02;;;25.50;66.10;;;;;;4173481;28;20102;-69
2021/12/19 09:56:21;;;;;;;27.38;18.70;;;25.50;65.90;;;;;;4149954;28;20080;-70
2021/12/19 09:58:25;;;;;;;29.83;19.25;;;25.40;66.00;;;;;;4158187;28;20069;-70
2021/12/19 10:00:30;;;;;;;27.40;19.20;;;25.50;66.20;;;;;;4150019;28;20049;-69
2021/12/19 10:02:34;;;;;;;31.73;19.45;;;25.50;66.30;;;;;;4142230;28;20531;-69
2021/12/19 10:04:43;;;;;;;47.22;25.60;;;25.50;66.10;;;;;;4141714;28;20101;-71
2021/12/19 10:06:48;;;;;;;47.60;25.33;;;25.50;66.40;;;;;;4125531;28;20458;-70
2021/12/19 10:09:12;;;;;;;46.80;25.08;;;25.50;66.40;;;;;;4125760;28;20813;-70
2021/12/19 10:11:32;;;;;;;34.30;20.92;;;25.50;66.80;;;;;;4143028;28;20129;-70
2021/12/19 10:13:37;;;;;;;38.65;20.77;;;25.40;66.70;;;;;;4142120;28;20042;-70
2021/12/19 10:15:44;;;;;;;35.38;21.45;;;25.40;66.90;;;;;;4146827;28;20073;-71
2021/12/19 10:17:58;;;;;;;36.20;20.95;;;25.40;66.90;;;;;;4157949;28;20450;-70
2021/12/19 10:20:05;;;;;;;31.52;20.10;;;25.40;67.00;;;;;;4156502;28;20389;-70
2021/12/19 10:22:36;;;;;;;32.55;20.45;;;25.40;67.40;;;;;;4157496;28;20073;-70
2021/12/19 10:24:40;;;;;;;33.40;19.95;;;25.30;66.90;;;;;;4176765;28;20530;-71
2021/12/19 10:26:47;;;;;;;31.25;19.67;;;25.20;67.30;;;;;;4158820;28;20050;-70
2021/12/19 10:28:55;;;;;;;32.22;19.65;;;25.20;67.20;;;;;;4158914;28;20057;-69
2021/12/19 10:31:01;;;;;;;37.40;18.80;;;25.10;67.30;;;;;;4165879;28;20068;-70
2021/12/19 10:33:11;;;;;;;36.05;18.63;;;25.10;67.20;;;;;;4176974;28;20042;-71
2021/12/19 10:35:24;;;;;;;37.40;18.38;;;25.20;67.10;;;;;;4176579;28;20453;-70
2021/12/19 10:37:31;;;;;;;;;;;25.20;67.00;;;;;;4191595;28;20044;-70
2021/12/19 10:39:40;;;;;;;38.45;18.75;;;25.20;67.20;;;;;;4193343;28;19970;-70
2021/12/19 10:41:56;;;;;;;27.77;17.60;;;25.20;67.10;;;;;;4182448;28;20446;-70
2021/12/19 10:44:07;;;;;;;29.20;17.88;;;25.10;67.40;;;;;;4176746;28;20044;-70
2021/12/19 10:46:13;;;;;;;27.37;17.53;;;25.20;67.40;;;;;;4176604;28;20132;-70
2021/12/19 10:48:27;;;;;;;40.92;20.25;;;25.20;67.20;;;;;;4176651;28;20053;-70
2021/12/19 10:50:55;;;;;;;33.05;19.60;;;25.10;67.40;;;;;;4176447;28;20076;-71
2021/12/19 10:53:05;;;;;;;35.00;22.02;;;25.20;67.60;;;;;;4177105;28;20095;-70
2021/12/19 10:55:11;;;;;;;47.78;24.38;;;25.20;67.70;;;;;;4177508;28;20041;-70
2021/12/19 10:57:15;;;;;;;42.00;24.83;;;25.20;67.70;;;;;;4167283;28;20053;-70
2021/12/19 10:59:19;;;;;;;45.45;25.83;;;25.10;68.00;;;;;;4192393;28;20044;-70
2021/12/19 11:01:38;;;;;;;44.97;26.17;;;25.10;68.40;;;;;;4182151;28;20053;-71
2021/12/19 11:03:51;;;;;;;38.28;26.27;;;25.10;68.70;;;;;;4176155;28;20427;-70
2021/12/19 11:05:56;;;;;;;46.20;25.85;;;25.10;68.60;;;;;;4175903;28;20414;-69
2021/12/19 11:08:05;;;;;;;38.72;26.08;;;25.00;69.70;;;;;;4171195;28;20053;-70
2021/12/19 11:10:27;;;;;;;40.35;25.75;;;25.00;69.20;;;;;;4174038;28;20040;-69
2021/12/19 11:12:32;;;;;;;41.20;25.73;;;25.00;69.10;;;;;;4175966;28;20530;-72
2021/12/19 11:14:44;;;;;;;40.15;24.67;;;25.00;69.30;;;;;;4175613;28;20048;-72
2021/12/19 11:16:50;;;;;;;38.58;25.50;;;25.00;69.60;;;;;;4159611;28;20055;-70
2021/12/19 11:18:54;;;;;;;43.55;25.13;;;25.00;69.60;;;;;;4176766;28;20294;-71
2021/12/19 11:20:59;;;;;;;40.67;24.63;;;25.00;69.60;;;;;;4176021;28;20073;-71
2021/12/19 11:23:04;;;;;;;45.47;27.90;;;24.90;70.00;;;;;;4176387;28;20660;-71
2021/12/19 11:25:09;;;;;;;41.15;26.08;;;24.80;70.00;;;;;;4176070;28;20545;-71
2021/12/19 11:27:18;;;;;;;41.58;26.00;;;24.80;70.40;;;;;;4175915;28;20052;-70
2021/12/19 11:29:23;;;;;;;40.80;24.60;;;24.70;70.40;;;;;;4175626;28;20041;-70
2021/12/19 11:31:28;;;;;;;38.35;23.13;;;24.80;70.80;;;;;;4176447;28;20049;-71
2021/12/19 11:33:49;;;;;;;41.90;22.67;;;24.80;70.20;;;;;;4174235;28;20088;-70
2021/12/19 11:35:55;;;;;;;40.67;23.15;;;24.80;70.50;;;;;;4175058;28;20061;-71
2021/12/19 11:38:08;;;;;;;38.55;23.27;;;24.80;70.60;;;;;;4175826;28;20057;-71
2021/12/19 11:40:17;;;;;;;42.63;24.67;;;24.80;70.70;;;;;;4175773;28;20057;-70
2021/12/19 11:42:34;;;;;;;43.25;27.17;;;24.80;71.30;;;;;;4179088;28;20053;-71
2021/12/19 11:47:12;;;;;;;47.17;30.00;;;24.70;71.20;;;;;;4178924;28;20053;-70
2021/12/19 11:49:24;;;;;;;47.55;29.10;;;24.70;71.20;;;;;;4143811;28;20056;-69
2021/12/19 11:51:28;;;;;;;53.92;28.95;;;24.70;71.00;;;;;;4143421;28;20069;-71
2021/12/19 11:53:34;;;;;;;47.35;28.15;;;24.50;71.90;;;;;;4143618;28;20407;-71
2021/12/19 11:55:43;;;;;;;51.25;29.27;;;24.50;71.50;;;;;;4144664;28;20185;-71
2021/12/19 11:58:09;;;;;;;47.60;27.58;;;24.60;71.50;;;;;;4128142;28;20050;-70
2021/12/19 12:00:26;;;;;;;46.38;28.10;;;24.50;71.80;;;;;;4144018;28;20042;-70
2021/12/19 12:02:31;;;;;;;45.35;26.70;;;24.50;71.90;;;;;;4144542;28;20084;-70
2021/12/19 12:04:36;;;;;;;47.45;25.80;;;24.60;71.70;;;;;;4127262;28;20062;-71
2021/12/19 12:06:54;;;;;;;45.70;25.65;;;24.70;71.30;;;;;;4127410;28;20046;-72
2021/12/19 12:09:21;;;;;;;45.42;25.55;;;24.70;71.30;;;;;;4128045;28;20163;-70
2021/12/19 12:11:25;;;;;;;46.72;29.77;;;24.70;71.20;;;;;;4143732;28;20098;-70
2021/12/19 12:13:33;;;;;;;46.78;27.95;;;24.80;71.40;;;;;;4127424;28;20101;-71
2021/12/19 12:15:38;;;;;;;39.20;26.70;;;24.70;71.50;;;;;;4125194;28;20065;-69
2021/12/19 12:17:50;;;;;;;47.47;26.45;;;24.70;71.80;;;;;;4126955;28;20081;-71
2021/12/19 12:19:57;;;;;;;40.47;24.40;;;24.70;71.90;;;;;;4130574;28;20042;-71
2021/12/19 12:22:27;;;;;;;37.00;24.45;;;24.70;71.80;;;;;;4143244;28;20058;-71
2021/12/19 12:24:33;;;;;;;37.90;23.27;;;24.50;72.30;;;;;;4143170;28;21917;-71
2021/12/19 12:26:46;;;;;;;41.85;23.67;;;24.40;72.30;;;;;;4116986;28;20062;-71
2021/12/19 12:28:51;;;;;;;39.72;23.33;;;24.30;72.80;;;;;;4114778;28;20208;-71
2021/12/19 12:30:56;;;;;;;37.60;23.05;;;24.40;72.80;;;;;;4133667;28;20054;-71
2021/12/19 12:33:02;;;;;;;34.33;22.52;;;24.30;72.70;;;;;;4127412;28;20354;-72
2021/12/19 12:35:07;;;;;;;41.97;24.27;;;24.40;72.70;;;;;;4136940;28;20083;-71